createdAt,value
2017-09-27T00:01:50.178Z,99728.84
2017-09-27T00:04:19.567Z,99728.33
2017-09-27T00:06:49.208Z,99730.99
2017-09-27T00:09:18.962Z,99737.61
2017-09-27T00:11:48.418Z,99733.73
2017-09-27T00:14:18.212Z,99736.28
2017-09-27T00:16:48.088Z,99742.33
2017-09-27T00:19:17.720Z,99739.55
2017-09-27T00:21:47.491Z,99742.39
2017-09-27T00:24:17.095Z,99748.92
2017-09-27T00:26:46.558Z,99753.99
2017-09-27T00:29:16.387Z,99744.80
2017-09-27T00:31:45.871Z,99749.89
2017-09-27T00:34:15.602Z,99755.07
2017-09-27T00:36:45.287Z,99753.27
2017-09-27T00:39:15.239Z,99750.77
2017-09-27T00:41:44.515Z,99750.39
2017-09-27T00:44:14.119Z,99748.92
2017-09-27T00:46:43.856Z,99741.63
2017-09-27T00:49:13.334Z,99744.20
2017-09-27T00:51:42.921Z,99748.98
2017-09-27T00:54:12.583Z,99749.77
2017-09-27T00:56:42.562Z,99749.15
2017-09-27T00:59:11.986Z,99745.19
2017-09-27T01:01:41.667Z,99748.01
2017-09-27T01:04:11.004Z,99749.52
2017-09-27T01:06:40.749Z,99750.66
2017-09-27T01:09:10.303Z,99748.96
2017-09-27T01:11:39.831Z,99741.42
2017-09-27T01:14:09.515Z,99741.70
2017-09-27T01:16:38.959Z,99738.20
2017-09-27T01:19:08.554Z,99740.48
2017-09-27T01:21:38.488Z,99739.67
2017-09-27T01:24:08.196Z,99733.69
2017-09-27T01:26:38.277Z,99719.25
2017-09-27T01:29:07.680Z,99723.34
2017-09-27T01:31:37.602Z,99726.03
2017-09-27T01:34:07.167Z,99725.72
2017-09-27T01:36:37.012Z,99722.06
2017-09-27T01:39:06.607Z,99727.11
2017-09-27T01:41:36.659Z,99734.13
2017-09-27T01:44:06.134Z,99733.40
2017-09-27T01:46:35.490Z,99739.34
2017-09-27T01:49:05.663Z,99738.80
2017-09-27T01:51:35.430Z,99733.77
2017-09-27T01:54:04.644Z,99726.31
2017-09-27T01:56:40.132Z,99719.48
2017-09-27T01:59:10.045Z,99724.92
2017-09-27T02:01:39.464Z,99714.67
2017-09-27T02:04:09.124Z,99722.75
2017-09-27T02:06:39.088Z,99730.72
2017-09-27T02:09:08.540Z,99735.19
2017-09-27T02:11:38.159Z,99728.00
2017-09-27T02:14:08.007Z,99732.41
2017-09-27T02:16:37.287Z,99737.34
2017-09-27T02:19:06.734Z,99740.22
2017-09-27T02:21:36.650Z,99736.40
2017-09-27T02:24:05.803Z,99735.17
2017-09-27T02:26:35.572Z,99737.49
2017-09-27T02:29:05.434Z,99741.48
2017-09-27T02:31:35.068Z,99739.47
2017-09-27T02:34:05.107Z,99732.83
2017-09-27T02:36:34.583Z,99743.28
2017-09-27T02:39:04.583Z,99732.19
2017-09-27T02:41:34.048Z,99736.40
2017-09-27T02:44:03.569Z,99733.80
2017-09-27T02:46:33.480Z,99731.78
2017-09-27T02:49:03.053Z,99728.06
2017-09-27T02:51:32.766Z,99726.42
2017-09-27T02:54:02.443Z,99722.33
2017-09-27T02:56:32.204Z,99729.88
2017-09-27T03:01:37.189Z,99734.02
2017-09-27T03:04:06.884Z,99736.80
2017-09-27T03:06:36.463Z,99733.11
2017-09-27T03:09:06.521Z,99729.16
2017-09-27T03:11:36.093Z,99730.22
2017-09-27T03:14:05.817Z,99736.19
2017-09-27T03:16:39.435Z,99736.96
2017-09-27T03:19:13.844Z,99742.44
2017-09-27T03:21:48.548Z,99741.61
2017-09-27T03:24:21.751Z,99749.07
2017-09-27T03:26:53.954Z,99737.44
2017-09-27T03:29:25.772Z,99743.63
2017-09-27T03:31:58.690Z,99747.77
2017-09-27T03:34:30.444Z,99748.30
2017-09-27T03:37:03.125Z,99747.00
2017-09-27T03:39:34.542Z,99742.27
2017-09-27T03:42:06.842Z,99739.75
2017-09-27T03:44:38.043Z,99740.76
2017-09-27T03:47:09.638Z,99736.86
2017-09-27T03:49:39.176Z,99741.98
2017-09-27T03:52:08.655Z,99739.17
2017-09-27T03:54:38.934Z,99735.73
2017-09-27T03:57:08.401Z,99732.66
2017-09-27T03:59:37.821Z,99731.44
2017-09-27T04:02:07.703Z,99733.58
2017-09-27T04:04:37.198Z,99735.20
2017-09-27T04:07:08.792Z,99728.94
2017-09-27T04:09:40.101Z,99738.98
2017-09-27T04:12:09.646Z,99735.70
2017-09-27T04:14:39.007Z,99737.27
2017-09-27T04:17:08.841Z,99735.88
2017-09-27T04:19:38.043Z,99730.88
2017-09-27T04:22:07.978Z,99732.72
2017-09-27T04:24:37.827Z,99737.90
2017-09-27T04:27:07.385Z,99741.12
2017-09-27T04:29:37.003Z,99741.31
2017-09-27T04:32:06.759Z,99744.63
2017-09-27T04:34:36.909Z,99745.45
2017-09-27T04:37:06.595Z,99748.45
2017-09-27T04:39:35.831Z,99741.77
2017-09-27T04:42:05.542Z,99743.77
2017-09-27T04:44:34.733Z,99739.95
2017-09-27T04:47:04.019Z,99737.28
2017-09-27T04:49:34.027Z,99740.77
2017-09-27T04:52:03.271Z,99738.02
2017-09-27T04:54:32.977Z,99738.83
2017-09-27T04:57:02.823Z,99743.58
2017-09-27T04:59:32.195Z,99740.13
2017-09-27T05:02:02.212Z,99741.63
2017-09-27T05:04:31.811Z,99744.13
2017-09-27T05:07:01.044Z,99752.41
2017-09-27T05:09:30.292Z,99750.27
2017-09-27T05:12:00.002Z,99754.92
2017-09-27T05:14:33.852Z,99757.23
2017-09-27T05:17:07.929Z,99761.20
2017-09-27T05:19:37.628Z,99756.31
2017-09-27T05:22:06.824Z,99764.73
2017-09-27T05:24:36.131Z,99765.31
2017-09-27T05:27:06.199Z,99771.80
2017-09-27T05:29:35.487Z,99772.02
2017-09-27T05:32:04.805Z,99766.48
2017-09-27T05:34:34.384Z,99767.05
2017-09-27T05:37:03.964Z,99769.64
2017-09-27T05:39:33.252Z,99779.09
2017-09-27T05:42:02.697Z,99776.04
2017-09-27T05:44:32.073Z,99777.28
2017-09-27T05:47:01.254Z,99781.27
2017-09-27T05:49:30.794Z,99775.06
2017-09-27T05:51:59.987Z,99781.48
2017-09-27T05:54:29.510Z,99781.41
2017-09-27T05:56:59.495Z,99781.59
2017-09-27T05:59:28.824Z,99784.36
2017-09-27T09:10:17.038Z,99854.23
2017-09-27T09:12:46.460Z,99846.03
2017-09-27T09:15:15.901Z,99850.36
2017-09-27T09:17:45.941Z,99850.47
2017-09-27T09:20:15.463Z,99851.58
2017-09-27T09:22:45.357Z,99844.42
2017-09-27T09:25:15.215Z,99836.59
2017-09-27T09:27:44.448Z,99836.69
2017-09-27T09:30:14.451Z,99832.83
2017-09-27T09:32:43.926Z,99838.31
2017-09-27T09:35:13.272Z,99834.45
2017-09-27T09:37:42.495Z,99835.63
2017-09-27T09:40:11.979Z,99839.19
2017-09-27T09:42:41.435Z,99836.17
2017-09-27T09:45:11.074Z,99839.38
2017-09-27T09:47:40.673Z,99844.02
2017-09-27T09:50:09.859Z,99830.16
2017-09-27T09:52:39.504Z,99817.51
2017-09-27T09:55:10.653Z,99808.18
2017-09-27T09:57:39.959Z,99811.77
2017-09-27T10:00:09.159Z,99811.84
2017-09-27T10:02:38.967Z,99809.28
2017-09-27T10:05:10.272Z,99813.31
2017-09-27T10:07:40.239Z,99813.45
2017-09-27T10:10:10.643Z,99811.66
2017-09-27T10:12:40.176Z,99807.98
2017-09-27T10:15:09.669Z,99821.34
2017-09-27T10:17:39.291Z,99812.76
2017-09-27T10:20:08.520Z,99810.20
2017-09-27T10:22:37.878Z,99814.98
2017-09-27T10:25:07.463Z,99814.89
2017-09-27T10:27:36.640Z,99817.41
2017-09-27T10:30:06.339Z,99806.84
2017-09-27T10:32:35.979Z,99811.28
2017-09-27T10:35:05.517Z,99815.89
2017-09-27T10:37:34.748Z,99815.59
2017-09-27T10:40:04.315Z,99812.08
2017-09-27T10:42:33.516Z,99816.52
2017-09-27T10:45:02.842Z,99810.36
2017-09-27T10:47:32.408Z,99811.30
2017-09-27T10:50:01.726Z,99818.03
2017-09-27T10:52:30.947Z,99812.80
2017-09-27T10:55:01.668Z,99814.69
2017-09-27T10:57:31.308Z,99804.62
2017-09-27T11:00:01.912Z,99805.84
2017-09-27T11:02:31.479Z,99803.45
2017-09-27T11:05:00.703Z,99802.10
2017-09-27T11:07:30.944Z,99798.98
2017-09-27T11:10:00.760Z,99801.89
2017-09-27T11:12:30.043Z,99797.23
2017-09-27T11:14:59.508Z,99798.13
2017-09-27T11:17:29.967Z,99807.89
2017-09-27T11:19:59.463Z,99796.29
2017-09-27T11:22:28.771Z,99789.28
2017-09-27T11:24:58.556Z,99792.48
2017-09-27T11:27:28.085Z,99797.20
2017-09-27T11:29:59.115Z,99792.33
2017-09-27T11:32:28.663Z,99786.82
2017-09-27T11:34:58.420Z,99782.89
2017-09-27T11:37:27.676Z,99779.61
2017-09-27T11:39:59.339Z,99775.59
2017-09-27T11:42:28.587Z,99769.62
2017-09-27T11:44:58.849Z,99765.05
2017-09-27T11:47:28.434Z,99767.63
2017-09-27T11:49:58.788Z,99773.09
2017-09-27T11:52:28.081Z,99769.12
2017-09-27T11:54:58.612Z,99764.37
2017-09-27T11:57:27.880Z,99772.11
2017-09-27T11:59:59.320Z,99772.58
2017-09-27T12:02:28.992Z,99772.08
2017-09-27T12:04:59.023Z,99769.41
2017-09-27T12:07:30.552Z,99766.06
2017-09-27T12:10:04.204Z,99765.20
2017-09-27T12:12:34.442Z,99765.56
2017-09-27T12:15:03.712Z,99761.53
2017-09-27T12:17:33.875Z,99755.88
2017-09-27T12:22:30.344Z,99745.14
2017-09-27T12:25:00.100Z,99736.97
2017-09-27T12:27:29.423Z,99742.23
2017-09-27T12:30:00.833Z,99739.61
2017-09-27T12:32:30.435Z,99737.23
2017-09-27T12:34:59.819Z,99735.10
2017-09-27T12:37:29.049Z,99741.33
2017-09-27T12:39:59.095Z,99740.86
2017-09-27T12:42:28.289Z,99744.78
2017-09-27T12:44:58.411Z,99740.09
2017-09-27T12:47:27.869Z,99737.03
2017-09-27T12:49:59.016Z,99739.78
2017-09-27T12:52:28.249Z,99733.89
2017-09-27T12:54:59.191Z,99741.07
2017-09-27T12:57:28.431Z,99736.19
2017-09-27T12:59:57.609Z,99731.12
2017-09-27T13:02:27.141Z,99728.52
2017-09-27T13:04:57.839Z,99730.40
2017-09-27T13:07:27.123Z,99729.20
2017-09-27T13:09:56.591Z,99729.86
2017-09-27T13:12:25.892Z,99727.05
2017-09-27T13:14:56.035Z,99729.66
2017-09-27T13:17:25.609Z,99730.14
2017-09-27T13:19:55.760Z,99730.59
2017-09-27T13:22:25.079Z,99732.14
2017-09-27T13:24:55.879Z,99732.07
2017-09-27T13:27:25.173Z,99729.22
2017-09-27T13:29:57.735Z,99732.87
2017-09-27T13:32:27.488Z,99726.70
2017-09-27T13:34:56.775Z,99731.15
2017-09-27T13:37:26.246Z,99721.73
2017-09-27T13:39:55.896Z,99719.97
2017-09-27T13:42:25.166Z,99716.70
2017-09-27T13:44:54.560Z,99711.98
2017-09-27T13:47:24.232Z,99708.39
2017-09-27T13:49:54.743Z,99705.81
2017-09-27T13:52:24.145Z,99702.55
2017-09-27T13:54:55.824Z,99710.87
2017-09-27T13:57:25.231Z,99709.38
2017-09-27T13:59:57.704Z,99711.73
2017-09-27T14:02:27.606Z,99716.97
2017-09-27T14:04:58.667Z,99717.76
2017-09-27T14:07:28.051Z,99718.09
2017-09-27T14:09:59.379Z,99721.39
2017-09-27T14:12:28.816Z,99713.50
2017-09-27T14:14:59.335Z,99714.75
2017-09-27T14:17:29.276Z,99701.55
2017-09-27T14:19:59.075Z,99711.28
2017-09-27T14:22:29.050Z,99708.77
2017-09-27T14:24:59.127Z,99708.73
2017-09-27T14:27:28.386Z,99710.85
2017-09-27T14:29:59.895Z,99705.57
2017-09-27T14:32:29.476Z,99702.53
2017-09-27T14:34:58.816Z,99701.45
2017-09-27T14:37:28.080Z,99695.84
2017-09-27T14:39:58.236Z,99699.09
2017-09-27T14:42:27.767Z,99690.23
2017-09-27T14:44:59.680Z,99698.50
2017-09-27T15:00:25.819Z,99690.42
2017-09-27T15:03:06.000Z,99690.59
2017-09-27T15:05:35.375Z,99686.83
2017-09-27T15:08:05.807Z,99691.94
2017-09-27T15:10:39.022Z,99695.53
2017-09-27T15:13:09.166Z,99694.40
2017-09-27T15:15:38.859Z,99691.33
2017-09-27T15:18:08.496Z,99690.70
2017-09-27T15:20:39.260Z,99685.87
2017-09-27T15:23:08.626Z,99685.31
2017-09-27T15:25:38.656Z,99694.80
2017-09-27T15:28:08.616Z,99687.69
2017-09-27T15:30:38.285Z,99698.73
2017-09-27T15:33:07.640Z,99694.42
2017-09-27T15:35:37.167Z,99698.55
2017-09-27T15:38:06.621Z,99698.33
2017-09-27T15:40:36.050Z,99700.83
2017-09-27T15:43:06.117Z,99695.55
2017-09-27T15:45:35.420Z,99702.86
2017-09-27T15:48:04.814Z,99696.49
2017-09-27T15:50:34.559Z,99691.77
2017-09-27T15:53:04.062Z,99697.27
2017-09-27T15:55:33.619Z,99697.97
2017-09-27T15:58:03.501Z,99703.39
2017-09-27T16:00:33.173Z,99699.38
2017-09-27T16:03:02.866Z,99695.17
2017-09-27T16:05:32.644Z,99701.73
2017-09-27T16:08:02.162Z,99696.02
2017-09-27T16:10:31.869Z,99691.88
2017-09-27T16:13:01.617Z,99688.70
2017-09-27T16:15:31.283Z,99699.47
2017-09-27T16:18:04.777Z,99698.84
2017-09-27T16:20:34.939Z,99694.61
2017-09-27T16:23:04.496Z,99701.95
2017-09-27T16:25:39.030Z,99696.59
2017-09-27T16:28:08.718Z,99700.21
2017-09-27T16:30:38.222Z,99704.05
2017-09-27T16:33:07.509Z,99701.50
2017-09-27T16:35:37.038Z,99694.16
2017-09-27T16:38:06.388Z,99698.98
2017-09-27T16:40:35.582Z,99697.84
2017-09-27T16:43:05.315Z,99699.56
2017-09-27T16:45:34.669Z,99708.02
2017-09-27T16:48:03.913Z,99707.75
2017-09-27T16:50:33.495Z,99710.13
2017-09-27T16:53:03.068Z,99714.64
2017-09-27T16:55:32.390Z,99707.67
2017-09-27T16:58:02.078Z,99703.91
2017-09-27T17:00:31.268Z,99709.70
2017-09-27T17:03:01.761Z,99713.39
2017-09-27T17:05:31.539Z,99704.64
2017-09-27T17:08:00.903Z,99713.86
2017-09-27T17:10:30.165Z,99711.47
2017-09-27T17:12:59.724Z,99709.63
2017-09-27T17:15:28.974Z,99711.48
2017-09-27T17:17:58.173Z,99705.12
2017-09-27T17:20:27.950Z,99719.30
2017-09-27T17:22:58.933Z,99719.87
2017-09-27T17:25:28.455Z,99718.31
2017-09-27T17:27:58.185Z,99720.17
2017-09-27T17:30:27.711Z,99721.22
2017-09-27T17:32:57.796Z,99716.70
2017-09-27T17:35:28.970Z,99724.79
2017-09-27T17:37:58.460Z,99724.23
2017-09-27T17:40:28.055Z,99726.86
2017-09-27T17:42:57.970Z,99727.50
2017-09-27T17:45:27.424Z,99722.62
2017-09-27T17:47:58.114Z,99726.84
2017-09-27T17:50:27.723Z,99724.23
2017-09-27T17:52:57.729Z,99728.91
2017-09-27T17:55:27.130Z,99728.34
2017-09-27T17:57:56.857Z,99727.06
2017-09-27T18:00:26.428Z,99730.80
2017-09-27T18:02:56.559Z,99729.03
2017-09-27T18:05:27.387Z,99733.56
2017-09-27T18:08:01.081Z,99717.88
2017-09-27T18:10:34.544Z,99725.73
2017-09-27T18:13:08.228Z,99731.81
2017-09-27T18:15:38.673Z,99727.63
2017-09-27T18:18:08.136Z,99728.26
2017-09-27T18:20:38.039Z,99728.89
2017-09-27T18:23:07.412Z,99730.88
2017-09-27T18:25:36.706Z,99735.17
2017-09-27T18:28:06.660Z,99732.84
2017-09-27T18:30:36.509Z,99733.28
2017-09-27T18:33:05.903Z,99738.34
2017-09-27T18:35:35.587Z,99741.11
2017-09-27T18:38:05.116Z,99745.42
2017-09-27T18:40:34.652Z,99732.42
2017-09-27T18:43:04.852Z,99735.25
2017-09-27T18:45:34.326Z,99731.64
2017-09-27T18:48:03.947Z,99731.27
2017-09-27T18:50:34.287Z,99735.45
2017-09-27T18:53:03.792Z,99737.52
2017-09-27T18:55:33.617Z,99740.69
2017-09-27T18:58:03.271Z,99742.95
2017-09-27T19:00:33.463Z,99745.53
2017-09-27T19:03:05.300Z,99749.92
2017-09-27T19:06:00.815Z,99741.57
2017-09-27T19:08:30.160Z,99744.67
2017-09-27T19:11:00.979Z,99745.59
2017-09-27T19:13:30.780Z,99745.66
2017-09-27T19:16:00.383Z,99745.82
2017-09-27T19:18:30.153Z,99748.27
2017-09-27T19:21:00.216Z,99755.67
2017-09-27T19:23:29.743Z,99754.12
2017-09-27T19:26:00.896Z,99762.63
2017-09-27T19:28:31.029Z,99753.27
2017-09-27T19:31:00.571Z,99751.68
2017-09-27T19:33:29.745Z,99757.19
2017-09-27T19:35:59.604Z,99756.34
2017-09-27T19:38:29.457Z,99761.42
2017-09-27T19:40:59.048Z,99753.83
2017-09-27T19:43:28.676Z,99756.95
2017-09-27T19:45:58.000Z,99762.17
2017-09-27T19:48:28.034Z,99753.61
2017-09-27T19:50:57.745Z,99757.49
2017-09-27T19:53:26.967Z,99758.27
2017-09-27T19:55:56.329Z,99760.73
2017-09-27T19:58:26.014Z,99762.42
2017-09-27T20:00:55.666Z,99756.97
2017-09-27T20:03:25.106Z,99757.81
2017-09-27T20:05:56.236Z,99754.22
2017-09-27T20:08:25.471Z,99754.11
2017-09-27T20:10:56.880Z,99745.55
2017-09-27T20:13:26.848Z,99749.22
2017-09-27T20:15:56.141Z,99752.11
2017-09-27T20:18:26.474Z,99744.55
2017-09-27T20:20:56.720Z,99746.59
2017-09-27T20:23:26.307Z,99744.97
2017-09-27T20:25:58.107Z,99746.20
2017-09-27T20:28:28.593Z,99750.54
2017-09-27T20:31:00.168Z,99745.75
2017-09-27T20:33:29.483Z,99750.93
2017-09-27T20:36:06.351Z,99750.65
2017-09-27T20:38:35.684Z,99747.97
2017-09-27T20:41:06.382Z,99746.49
2017-09-27T20:43:35.896Z,99747.76
2017-09-27T20:46:05.213Z,99747.73
2017-09-27T20:48:34.507Z,99745.82
2017-09-27T20:51:04.474Z,99744.66
2017-09-27T20:53:33.700Z,99742.79
2017-09-27T20:56:02.991Z,99747.23
2017-09-27T20:58:32.466Z,99745.02
2017-09-27T21:01:01.725Z,99750.05
2017-09-27T21:03:31.104Z,99751.03
2017-09-27T21:06:00.731Z,99750.14
2017-09-27T21:08:30.308Z,99750.56
2017-09-27T21:10:59.667Z,99749.02
2017-09-27T21:13:29.951Z,99748.33
2017-09-27T21:15:59.600Z,99750.83
2017-09-27T21:18:30.344Z,99743.44
2017-09-27T21:21:00.172Z,99742.93
2017-09-27T21:24:31.511Z,99745.54
2017-09-27T21:27:01.187Z,99750.22
2017-09-27T21:29:30.448Z,99743.03
2017-09-27T21:31:59.788Z,99746.05
2017-09-27T21:34:29.807Z,99744.08
2017-09-27T21:36:59.105Z,99744.25
2017-09-27T21:39:28.472Z,99737.55
2017-09-27T21:41:58.103Z,99737.62
2017-09-27T21:44:27.591Z,99735.95
2017-09-27T21:46:58.074Z,99736.02
2017-09-27T21:49:28.168Z,99733.84
2017-09-27T21:51:59.047Z,99736.52
2017-09-27T21:54:28.503Z,99733.21
2017-09-27T21:56:58.065Z,99728.62
2017-09-27T21:59:27.558Z,99737.62
2017-09-27T22:01:59.091Z,99735.44
2017-09-27T22:04:28.965Z,99734.66
2017-09-27T22:06:58.883Z,99733.52
2017-09-27T22:09:28.299Z,99736.23
2017-09-27T22:11:58.143Z,99733.05
2017-09-27T22:14:28.160Z,99734.59
2017-09-27T22:16:57.687Z,99728.70
2017-09-27T22:19:27.590Z,99735.58
2017-09-27T22:21:56.887Z,99728.48
2017-09-27T22:24:26.155Z,99729.64
2017-09-27T22:26:56.902Z,99728.42
2017-09-27T22:29:30.248Z,99734.95
2017-09-27T22:32:01.400Z,99733.65
2017-09-27T22:34:32.072Z,99726.09
2017-09-27T22:37:01.889Z,99734.02
2017-09-27T22:39:32.117Z,99735.23
2017-09-27T22:42:02.619Z,99732.27
2017-09-27T22:44:33.909Z,99739.14
2017-09-27T22:47:03.923Z,99735.13
2017-09-27T22:49:33.527Z,99729.78
2017-09-27T22:52:03.166Z,99728.78
2017-09-27T22:54:32.771Z,99734.34
2017-09-27T22:57:02.402Z,99734.20
2017-09-27T22:59:32.050Z,99733.23
2017-09-27T23:02:02.242Z,99735.42
2017-09-27T23:04:31.732Z,99737.38
2017-09-27T23:07:01.483Z,99734.99
2017-09-27T23:09:31.821Z,99738.06
2017-09-27T23:12:01.812Z,99735.45
2017-09-27T23:14:31.403Z,99740.92
2017-09-27T23:17:01.587Z,99747.20
2017-09-27T23:19:31.123Z,99744.31
2017-09-27T23:22:00.961Z,99747.83
2017-09-27T23:24:31.012Z,99750.45
2017-09-27T23:27:00.797Z,99748.95
2017-09-27T23:29:30.358Z,99753.98
2017-09-27T23:32:00.271Z,99752.95
2017-09-27T23:34:29.771Z,99754.83
2017-09-27T23:36:59.487Z,99761.99
2017-09-27T23:39:29.419Z,99757.82
2017-09-27T23:41:59.244Z,99756.17
2017-09-27T23:44:28.915Z,99755.91
2017-09-27T23:46:58.497Z,99760.78
2017-09-27T23:49:28.558Z,99763.05
2017-09-27T23:51:59.567Z,99762.77
2017-09-27T23:54:29.292Z,99766.72
2017-09-27T23:56:59.681Z,99762.51
2017-09-27T23:59:29.361Z,99763.84
